Time;durP1;ratioP1;P1;durP2;ratioP2;P2;SDS_P1;SDS_P2;PMS_P1;PMS_P2;Temp;Humidity;BMP_temperature;BMP_pressure;BME280_temperature;BME280_humidity;BME280_pressure;Samples;Min_cycle;Max_cycle;Signal;HPM_P1;HPM_P2
2022/05/25 00:01:35;;;;;;;;;11.67;11.67;;;;;;;;6492754;46;8832;-58
2022/05/25 00:07:37;;;;;;;;;13.00;12.00;;;;;;;;6492958;39;9028;-58
2022/05/25 00:13:40;;;;;;;;;9.67;9.67;;;;;;;;6492684;31;9087;-57
2022/05/25 00:20:01;;;;;;;;;9.00;9.00;;;;;;;;6492442;39;8959;-57
2022/05/25 00:26:03;;;;;;;;;12.75;10.50;;;;;;;;6492718;31;8905;-56
2022/05/25 00:32:07;;;;;;;;;15.75;15.25;;;;;;;;6491434;46;8888;-57
2022/05/25 00:38:09;;;;;;;;;12.67;12.00;;;;;;;;6493059;31;8894;-58
2022/05/25 00:44:11;;;;;;;;;15.75;14.25;;;;;;;;6492113;31;8928;-58
2022/05/25 00:50:17;;;;;;;;;15.50;15.00;;;;;;;;6492065;39;8938;-58
2022/05/25 00:56:21;;;;;;;;;16.00;16.00;;;;;;;;6492528;39;8837;-58
2022/05/25 01:02:27;;;;;;;;;17.50;16.50;;;;;;;;6492196;46;8899;-57
2022/05/25 01:08:45;;;;;;;;;18.67;15.67;;;;;;;;6491690;46;8905;-57
2022/05/25 01:15:06;;;;;;;;;22.50;22.50;;;;;;;;6491890;39;8875;-57
2022/05/25 01:21:16;;;;;;;;;31.00;28.25;;;;;;;;6492760;31;8848;-59
2022/05/25 01:27:34;;;;;;;;;28.75;24.50;;;;;;;;6492111;31;8872;-58
2022/05/25 01:33:48;;;;;;;;;25.00;24.00;;;;;;;;6491396;46;8901;-59
2022/05/25 01:40:14;;;;;;;;;18.50;17.00;;;;;;;;6492292;39;8851;-58
2022/05/25 01:46:25;;;;;;;;;14.25;13.50;;;;;;;;6491812;39;8865;-59
2022/05/25 01:52:35;;;;;;;;;23.00;20.00;;;;;;;;6491824;46;8891;-57
2022/05/25 01:58:42;;;;;;;;;16.25;16.25;;;;;;;;6491274;46;8912;-57
2022/05/25 02:04:48;;;;;;;;;43.50;38.00;;;;;;;;6491275;46;8911;-59
2022/05/25 02:11:08;;;;;;;;;44.50;40.75;;;;;;;;6491220;39;8976;-58
2022/05/25 02:17:32;;;;;;;;;34.00;33.50;;;;;;;;6491543;46;8828;-57
2022/05/25 02:23:57;;;;;;;;;32.00;30.75;;;;;;;;6491025;39;9473;-58
2022/05/25 02:30:08;;;;;;;;;28.60;24.60;;;;;;;;6321757;36;10008035;-58
2022/05/25 02:36:12;;;;;;;;;19.25;17.75;;;;;;;;6491507;46;8859;-58
2022/05/25 02:42:16;;;;;;;;;22.25;19.25;;;;;;;;6490938;46;9043;-58
2022/05/25 02:48:19;;;;;;;;;23.25;19.75;;;;;;;;6491390;46;8958;-59
2022/05/25 02:54:22;;;;;;;;;17.75;17.00;;;;;;;;6491237;39;8965;-58
2022/05/25 03:00:24;;;;;;;;;23.25;18.50;;;;;;;;6491544;39;9169;-58
2022/05/25 03:06:26;;;;;;;;;24.00;23.00;;;;;;;;6491013;46;8998;-59
2022/05/25 03:12:29;;;;;;;;;27.00;24.75;;;;;;;;6490814;47;8975;-58
2022/05/25 03:18:31;;;;;;;;;24.75;22.50;;;;;;;;6490656;31;8914;-58
2022/05/25 03:24:33;;;;;;;;;24.75;23.00;;;;;;;;6491156;39;8885;-58
2022/05/25 03:30:35;;;;;;;;;29.75;28.25;;;;;;;;6490734;39;9572;-57
2022/05/25 03:36:38;;;;;;;;;26.75;24.25;;;;;;;;6491368;39;8852;-58
2022/05/25 03:42:42;;;;;;;;;19.25;17.75;;;;;;;;6491087;39;8861;-58
2022/05/25 03:48:44;;;;;;;;;21.25;19.00;;;;;;;;6490494;47;8979;-59
2022/05/25 03:54:46;;;;;;;;;18.50;18.50;;;;;;;;6490762;39;8873;-58
2022/05/25 04:07:58;;;;;;;;;20.75;19.50;;;;;;;;6493342;31;9100;-57
2022/05/25 04:14:05;;;;;;;;;23.50;20.50;;;;;;;;6493292;39;8919;-57
